FVDU weather

Dudley Airport
Dudley, Mashonaland East Province, Zimbabwe

Public forecast

Using degrees Celsius for public forecast. Weather courtesy of forecast.io.

Closest aviation weather report (METAR) to Dudley Airport

Closest report is Robert Gabriel Mugabe International Airport, 30.7 nm (56.8 km) NW. Retrieved 2019/10/15 09:00 UTC (2 hours ago):

FVRG 150900Z 09008KT CAVOK 28/M01 Q1025 NOSIG

Closest aviation forecast (TAF) to Dudley Airport

Forecast is more than 12 hours old.

Closest forecast is Robert Gabriel Mugabe International Airport, 30.7 nm (56.8 km) NW. Retrieved 2019/10/13 18:00 UTC (2 days ago):

TAF FVRG 131600Z 1318/1500 08006KT CAVOK